sensor_id;sensor_type;location;lat;lon;timestamp;pressure;altitude;pressure_sealevel;temperature;humidity
28448;BME280;15675;52.870;-1.416;2022-12-15T00:02:17;100480.63;;;-3.97;100.00
28448;BME280;15675;52.870;-1.416;2022-12-15T00:05:01;100476.78;;;-4.05;100.00
28448;BME280;15675;52.870;-1.416;2022-12-15T00:07:45;100480.56;;;-3.84;100.00
28448;BME280;15675;52.870;-1.416;2022-12-15T00:10:29;100473.38;;;-3.91;100.00
28448;BME280;15675;52.870;-1.416;2022-12-15T00:13:12;100470.06;;;-3.90;100.00
28448;BME280;15675;52.870;-1.416;2022-12-15T00:15:57;100468.81;;;-3.96;100.00
28448;BME280;15675;52.870;-1.416;2022-12-15T00:18:41;100483.53;;;-3.91;100.00
28448;BME280;15675;52.870;-1.416;2022-12-15T00:21:25;100484.72;;;-3.99;100.00
28448;BME280;15675;52.870;-1.416;2022-12-15T00:24:09;100485.03;;;-3.94;100.00
28448;BME280;15675;52.870;-1.416;2022-12-15T00:26:52;100482.47;;;-3.79;100.00
28448;BME280;15675;52.870;-1.416;2022-12-15T00:29:36;100481.88;;;-3.90;100.00
28448;BME280;15675;52.870;-1.416;2022-12-15T00:32:21;100478.09;;;-3.97;100.00
28448;BME280;15675;52.870;-1.416;2022-12-15T00:35:05;100485.41;;;-3.73;100.00
28448;BME280;15675;52.870;-1.416;2022-12-15T00:37:49;100490.28;;;-3.61;100.00
28448;BME280;15675;52.870;-1.416;2022-12-15T00:40:33;100478.81;;;-3.85;100.00
28448;BME280;15675;52.870;-1.416;2022-12-15T00:42:59;100487.91;;;-3.88;100.00
28448;BME280;15675;52.870;-1.416;2022-12-15T00:45:24;100473.09;;;-3.81;100.00
28448;BME280;15675;52.870;-1.416;2022-12-15T00:48:10;100493.31;;;-3.97;100.00
28448;BME280;15675;52.870;-1.416;2022-12-15T00:50:35;100488.94;;;-4.00;100.00
28448;BME280;15675;52.870;-1.416;2022-12-15T00:53:23;100495.34;;;-3.76;100.00
28448;BME280;15675;52.870;-1.416;2022-12-15T00:56:08;100493.41;;;-3.95;100.00
28448;BME280;15675;52.870;-1.416;2022-12-15T00:58:52;100496.03;;;-4.37;100.00
28448;BME280;15675;52.870;-1.416;2022-12-15T01:01:55;100491.22;;;-4.04;100.00
28448;BME280;15675;52.870;-1.416;2022-12-15T01:08:01;100492.53;;;-3.96;100.00
28448;BME280;15675;52.870;-1.416;2022-12-15T01:10:46;100504.13;;;-4.14;100.00
28448;BME280;15675;52.870;-1.416;2022-12-15T01:13:34;100502.56;;;-4.12;100.00
28448;BME280;15675;52.870;-1.416;2022-12-15T01:16:21;100488.31;;;-4.10;100.00
28448;BME280;15675;52.870;-1.416;2022-12-15T01:19:07;100482.91;;;-4.02;100.00
28448;BME280;15675;52.870;-1.416;2022-12-15T01:21:51;100489.00;;;-4.13;100.00
28448;BME280;15675;52.870;-1.416;2022-12-15T01:24:16;100484.03;;;-4.11;100.00
28448;BME280;15675;52.870;-1.416;2022-12-15T01:26:42;100488.44;;;-4.22;100.00
28448;BME280;15675;52.870;-1.416;2022-12-15T01:29:07;100493.31;;;-4.40;100.00
28448;BME280;15675;52.870;-1.416;2022-12-15T01:31:33;100489.03;;;-4.55;100.00
28448;BME280;15675;52.870;-1.416;2022-12-15T01:33:58;100493.75;;;-4.61;100.00
28448;BME280;15675;52.870;-1.416;2022-12-15T01:36:24;100486.50;;;-4.55;100.00
28448;BME280;15675;52.870;-1.416;2022-12-15T01:38:49;100485.28;;;-4.33;100.00
28448;BME280;15675;52.870;-1.416;2022-12-15T01:41:15;100495.78;;;-4.27;100.00
28448;BME280;15675;52.870;-1.416;2022-12-15T01:43:41;100491.69;;;-4.25;100.00
28448;BME280;15675;52.870;-1.416;2022-12-15T01:46:18;100490.47;;;-4.31;100.00
28448;BME280;15675;52.870;-1.416;2022-12-15T01:51:21;100489.38;;;-4.35;100.00
28448;BME280;15675;52.870;-1.416;2022-12-15T01:54:02;100500.59;;;-4.60;100.00
28448;BME280;15675;52.870;-1.416;2022-12-15T01:56:31;100504.97;;;-4.71;100.00
28448;BME280;15675;52.870;-1.416;2022-12-15T01:58:59;100490.31;;;-4.48;100.00
28448;BME280;15675;52.870;-1.416;2022-12-15T02:01:27;100517.63;;;-4.57;100.00
28448;BME280;15675;52.870;-1.416;2022-12-15T02:03:52;100507.78;;;-4.53;100.00
28448;BME280;15675;52.870;-1.416;2022-12-15T02:06:18;100501.97;;;-4.37;100.00
28448;BME280;15675;52.870;-1.416;2022-12-15T02:08:48;100506.34;;;-4.34;100.00
28448;BME280;15675;52.870;-1.416;2022-12-15T02:30:33;100492.47;;;-4.26;100.00
28448;BME280;15675;52.870;-1.416;2022-12-15T02:33:07;100492.50;;;-4.68;100.00
28448;BME280;15675;52.870;-1.416;2022-12-15T02:36:04;100493.72;;;-4.47;100.00
28448;BME280;15675;52.870;-1.416;2022-12-15T02:38:34;100491.59;;;-4.55;100.00
28448;BME280;15675;52.870;-1.416;2022-12-15T02:41:02;100489.88;;;-4.41;100.00
28448;BME280;15675;52.870;-1.416;2022-12-15T02:43:29;100492.34;;;-4.42;100.00
28448;BME280;15675;52.870;-1.416;2022-12-15T02:46:04;100491.69;;;-4.53;100.00
28448;BME280;15675;52.870;-1.416;2022-12-15T02:51:51;100497.81;;;-4.21;100.00
28448;BME280;15675;52.870;-1.416;2022-12-15T02:54:49;100488.44;;;-4.51;100.00
28448;BME280;15675;52.870;-1.416;2022-12-15T03:00:07;100495.13;;;-4.66;100.00
28448;BME280;15675;52.870;-1.416;2022-12-15T03:02:36;100496.28;;;-4.47;100.00
28448;BME280;15675;52.870;-1.416;2022-12-15T03:05:04;100489.94;;;-4.54;100.00
28448;BME280;15675;52.870;-1.416;2022-12-15T03:07:30;100487.59;;;-4.51;100.00
28448;BME280;15675;52.870;-1.416;2022-12-15T03:09:58;100488.69;;;-4.61;100.00
28448;BME280;15675;52.870;-1.416;2022-12-15T03:12:24;100500.19;;;-4.66;100.00
28448;BME280;15675;52.870;-1.416;2022-12-15T03:14:50;100493.88;;;-4.73;100.00
28448;BME280;15675;52.870;-1.416;2022-12-15T03:17:15;100494.47;;;-4.77;100.00
28448;BME280;15675;52.870;-1.416;2022-12-15T03:19:41;100496.09;;;-4.64;100.00
28448;BME280;15675;52.870;-1.416;2022-12-15T03:22:06;100491.69;;;-4.53;100.00
28448;BME280;15675;52.870;-1.416;2022-12-15T03:24:32;100488.28;;;-4.54;100.00
28448;BME280;15675;52.870;-1.416;2022-12-15T03:26:58;100494.69;;;-4.45;100.00
28448;BME280;15675;52.870;-1.416;2022-12-15T03:29:23;100497.38;;;-4.29;100.00
28448;BME280;15675;52.870;-1.416;2022-12-15T03:31:49;100486.50;;;-4.55;100.00
28448;BME280;15675;52.870;-1.416;2022-12-15T03:34:15;100490.13;;;-4.51;100.00
28448;BME280;15675;52.870;-1.416;2022-12-15T03:36:41;100492.56;;;-4.53;100.00
28448;BME280;15675;52.870;-1.416;2022-12-15T03:39:06;100484.97;;;-4.66;100.00
28448;BME280;15675;52.870;-1.416;2022-12-15T03:41:32;100490.84;;;-4.67;100.00
28448;BME280;15675;52.870;-1.416;2022-12-15T03:43:58;100490.91;;;-4.52;100.00
28448;BME280;15675;52.870;-1.416;2022-12-15T03:46:23;100493.44;;;-4.24;100.00
28448;BME280;15675;52.870;-1.416;2022-12-15T03:48:49;100501.81;;;-4.25;100.00
28448;BME280;15675;52.870;-1.416;2022-12-15T03:51:15;100505.50;;;-4.35;100.00
28448;BME280;15675;52.870;-1.416;2022-12-15T03:53:40;100492.84;;;-4.20;100.00
28448;BME280;15675;52.870;-1.416;2022-12-15T03:56:06;100497.91;;;-4.20;100.00
28448;BME280;15675;52.870;-1.416;2022-12-15T03:58:31;100490.22;;;-4.21;100.00
28448;BME280;15675;52.870;-1.416;2022-12-15T04:00:57;100495.09;;;-4.24;100.00
28448;BME280;15675;52.870;-1.416;2022-12-15T04:03:23;100488.03;;;-4.15;100.00
28448;BME280;15675;52.870;-1.416;2022-12-15T04:05:48;100485.56;;;-4.28;100.00
28448;BME280;15675;52.870;-1.416;2022-12-15T04:08:14;100498.56;;;-4.37;100.00
28448;BME280;15675;52.870;-1.416;2022-12-15T04:10:39;100492.75;;;-4.21;100.00
28448;BME280;15675;52.870;-1.416;2022-12-15T04:13:07;100489.63;;;-4.02;100.00
28448;BME280;15675;52.870;-1.416;2022-12-15T04:15:35;100498.47;;;-4.10;100.00
28448;BME280;15675;52.870;-1.416;2022-12-15T04:18:03;100486.19;;;-4.18;100.00
28448;BME280;15675;52.870;-1.416;2022-12-15T04:20:28;100498.31;;;-4.27;100.00
28448;BME280;15675;52.870;-1.416;2022-12-15T04:22:54;100503.06;;;-4.18;100.00
28448;BME280;15675;52.870;-1.416;2022-12-15T04:25:22;100496.31;;;-4.32;100.00
28448;BME280;15675;52.870;-1.416;2022-12-15T04:28:07;100494.44;;;-4.35;100.00
28448;BME280;15675;52.870;-1.416;2022-12-15T04:30:56;100489.06;;;-4.26;100.00
28448;BME280;15675;52.870;-1.416;2022-12-15T04:33:44;100492.06;;;-4.19;100.00
28448;BME280;15675;52.870;-1.416;2022-12-15T04:36:30;100477.63;;;-4.20;100.00
28448;BME280;15675;52.870;-1.416;2022-12-15T04:39:14;100481.28;;;-4.29;100.00
28448;BME280;15675;52.870;-1.416;2022-12-15T04:41:59;100487.22;;;-4.29;100.00
28448;BME280;15675;52.870;-1.416;2022-12-15T04:44:46;100484.31;;;-4.35;100.00
28448;BME280;15675;52.870;-1.416;2022-12-15T04:47:31;100494.84;;;-4.29;100.00
28448;BME280;15675;52.870;-1.416;2022-12-15T04:50:15;100490.38;;;-4.18;100.00
28448;BME280;15675;52.870;-1.416;2022-12-15T04:53:11;100492.75;;;-4.21;100.00
28448;BME280;15675;52.870;-1.416;2022-12-15T04:55:55;100495.34;;;-4.35;100.00
28448;BME280;15675;52.870;-1.416;2022-12-15T04:58:40;100496.56;;;-4.28;100.00
28448;BME280;15675;52.870;-1.416;2022-12-15T05:01:24;100498.47;;;-4.39;100.00
28448;BME280;15675;52.870;-1.416;2022-12-15T05:04:08;100495.94;;;-4.39;100.00
28448;BME280;15675;52.870;-1.416;2022-12-15T05:06:52;100495.97;;;-4.52;100.00
28448;BME280;15675;52.870;-1.416;2022-12-15T05:09:37;100494.03;;;-4.56;100.00
28448;BME280;15675;52.870;-1.416;2022-12-15T05:12:21;100488.00;;;-4.58;100.00
28448;BME280;15675;52.870;-1.416;2022-12-15T05:15:05;100489.84;;;-4.56;100.00
28448;BME280;15675;52.870;-1.416;2022-12-15T05:17:50;100502.66;;;-4.39;100.00
28448;BME280;15675;52.870;-1.416;2022-12-15T05:20:34;100509.47;;;-4.38;100.00
28448;BME280;15675;52.870;-1.416;2022-12-15T05:23:18;100511.66;;;-4.58;100.00
28448;BME280;15675;52.870;-1.416;2022-12-15T05:26:01;100511.41;;;-4.62;100.00
28448;BME280;15675;52.870;-1.416;2022-12-15T05:28:46;100512.75;;;-4.68;100.00
28448;BME280;15675;52.870;-1.416;2022-12-15T05:31:30;100522.19;;;-4.52;100.00
28448;BME280;15675;52.870;-1.416;2022-12-15T05:34:13;100518.44;;;-4.43;100.00
28448;BME280;15675;52.870;-1.416;2022-12-15T05:36:39;100514.47;;;-4.40;100.00
28448;BME280;15675;52.870;-1.416;2022-12-15T05:39:04;100514.03;;;-4.32;100.00
28448;BME280;15675;52.870;-1.416;2022-12-15T05:41:30;100514.06;;;-4.18;100.00
28448;BME280;15675;52.870;-1.416;2022-12-15T05:43:55;100510.81;;;-4.30;100.00
28448;BME280;15675;52.870;-1.416;2022-12-15T05:46:21;100510.84;;;-4.43;100.00
28448;BME280;15675;52.870;-1.416;2022-12-15T05:48:46;100528.38;;;-4.61;100.00
28448;BME280;15675;52.870;-1.416;2022-12-15T05:51:13;100520.19;;;-4.71;100.00
28448;BME280;15675;52.870;-1.416;2022-12-15T05:53:40;100529.63;;;-4.68;100.00
28448;BME280;15675;52.870;-1.416;2022-12-15T05:56:11;100530.81;;;-4.76;100.00
28448;BME280;15675;52.870;-1.416;2022-12-15T05:58:38;100526.31;;;-4.67;100.00
28448;BME280;15675;52.870;-1.416;2022-12-15T06:01:09;100532.84;;;-4.71;100.00
28448;BME280;15675;52.870;-1.416;2022-12-15T06:03:36;100535.78;;;-4.78;100.00
28448;BME280;15675;52.870;-1.416;2022-12-15T06:06:03;100535.09;;;-4.75;100.00
28448;BME280;15675;52.870;-1.416;2022-12-15T06:08:31;100528.56;;;-4.85;100.00
28448;BME280;15675;52.870;-1.416;2022-12-15T06:10:57;100534.81;;;-4.80;100.00
28448;BME280;15675;52.870;-1.416;2022-12-15T06:13:23;100530.75;;;-4.91;100.00
28448;BME280;15675;52.870;-1.416;2022-12-15T06:16:05;100537.44;;;-4.92;100.00
28448;BME280;15675;52.870;-1.416;2022-12-15T06:18:35;100536.19;;;-4.98;100.00
28448;BME280;15675;52.870;-1.416;2022-12-15T06:21:03;100537.44;;;-4.92;100.00
28448;BME280;15675;52.870;-1.416;2022-12-15T06:23:29;100523.72;;;-4.95;100.00
28448;BME280;15675;52.870;-1.416;2022-12-15T06:25:57;100528.69;;;-4.97;100.00
28448;BME280;15675;52.870;-1.416;2022-12-15T06:28:24;100533.88;;;-5.09;100.00
28448;BME280;15675;52.870;-1.416;2022-12-15T06:30:54;100538.44;;;-4.90;100.00
28448;BME280;15675;52.870;-1.416;2022-12-15T06:33:21;100532.97;;;-5.09;100.00
28448;BME280;15675;52.870;-1.416;2022-12-15T06:35:47;100536.28;;;-5.24;100.00
28448;BME280;15675;52.870;-1.416;2022-12-15T06:38:13;100536.19;;;-5.12;100.00
28448;BME280;15675;52.870;-1.416;2022-12-15T06:40:39;100540.97;;;-5.16;100.00
28448;BME280;15675;52.870;-1.416;2022-12-15T06:43:05;100540.84;;;-5.05;100.00
28448;BME280;15675;52.870;-1.416;2022-12-15T06:45:32;100538.44;;;-4.90;100.00
28448;BME280;15675;52.870;-1.416;2022-12-15T06:47:58;100547.97;;;-5.12;100.00
28448;BME280;15675;52.870;-1.416;2022-12-15T06:50:23;100544.34;;;-4.89;100.00
28448;BME280;15675;52.870;-1.416;2022-12-15T06:52:49;100535.31;;;-4.99;100.00
28448;BME280;15675;52.870;-1.416;2022-12-15T06:55:15;100548.94;;;-4.83;100.00
28448;BME280;15675;52.870;-1.416;2022-12-15T06:57:40;100549.25;;;-4.92;100.00
28448;BME280;15675;52.870;-1.416;2022-12-15T07:00:06;100552.84;;;-4.89;100.00
28448;BME280;15675;52.870;-1.416;2022-12-15T07:02:32;100545.84;;;-4.93;100.00
28448;BME280;15675;52.870;-1.416;2022-12-15T07:04:58;100553.03;;;-4.99;100.00
28448;BME280;15675;52.870;-1.416;2022-12-15T07:07:24;100548.66;;;-5.01;100.00
28448;BME280;15675;52.870;-1.416;2022-12-15T07:09:50;100550.22;;;-4.90;100.00
28448;BME280;15675;52.870;-1.416;2022-12-15T07:12:16;100553.72;;;-4.88;100.00
28448;BME280;15675;52.870;-1.416;2022-12-15T07:14:42;100549.34;;;-4.77;100.00
28448;BME280;15675;52.870;-1.416;2022-12-15T07:17:08;100564.53;;;-4.91;100.00
28448;BME280;15675;52.870;-1.416;2022-12-15T07:19:35;100567.53;;;-4.96;100.00
28448;BME280;15675;52.870;-1.416;2022-12-15T07:22:01;100560.44;;;-4.89;100.00
28448;BME280;15675;52.870;-1.416;2022-12-15T07:24:27;100541.47;;;-5.09;100.00
28448;BME280;15675;52.870;-1.416;2022-12-15T07:26:52;100547.78;;;-5.02;100.00
28448;BME280;15675;52.870;-1.416;2022-12-15T07:29:19;100552.06;;;-4.88;100.00
28448;BME280;15675;52.870;-1.416;2022-12-15T07:31:45;100555.38;;;-5.02;100.00
28448;BME280;15675;52.870;-1.416;2022-12-15T07:34:10;100563.19;;;-4.86;100.00
28448;BME280;15675;52.870;-1.416;2022-12-15T07:36:36;100565.41;;;-4.77;100.00
28448;BME280;15675;52.870;-1.416;2022-12-15T07:39:03;100560.91;;;-4.81;100.00
28448;BME280;15675;52.870;-1.416;2022-12-15T07:41:28;100552.94;;;-4.74;100.00
28448;BME280;15675;52.870;-1.416;2022-12-15T07:43:55;100552.16;;;-4.99;100.00
28448;BME280;15675;52.870;-1.416;2022-12-15T07:46:21;100545.25;;;-5.02;100.00
28448;BME280;15675;52.870;-1.416;2022-12-15T07:48:46;100553.81;;;-5.00;100.00
28448;BME280;15675;52.870;-1.416;2022-12-15T07:51:12;100557.31;;;-4.85;100.00
28448;BME280;15675;52.870;-1.416;2022-12-15T07:53:37;100553.59;;;-4.76;100.00
28448;BME280;15675;52.870;-1.416;2022-12-15T07:56:04;100568.81;;;-4.63;100.00
28448;BME280;15675;52.870;-1.416;2022-12-15T07:58:30;100566.84;;;-4.67;100.00
28448;BME280;15675;52.870;-1.416;2022-12-15T08:01:01;100560.22;;;-4.65;100.00
28448;BME280;15675;52.870;-1.416;2022-12-15T08:03:28;100570.53;;;-4.48;100.00
28448;BME280;15675;52.870;-1.416;2022-12-15T08:05:54;100570.63;;;-4.60;100.00
28448;BME280;15675;52.870;-1.416;2022-12-15T08:08:20;100580.78;;;-4.74;100.00
28448;BME280;15675;52.870;-1.416;2022-12-15T08:10:47;100576.59;;;-4.87;100.00
28448;BME280;15675;52.870;-1.416;2022-12-15T08:13:13;100587.69;;;-4.58;100.00
28448;BME280;15675;52.870;-1.416;2022-12-15T08:15:39;100584.28;;;-4.03;100.00
28448;BME280;15675;52.870;-1.416;2022-12-15T08:18:06;100586.72;;;-3.47;100.00
28448;BME280;15675;52.870;-1.416;2022-12-15T08:20:32;100581.41;;;-3.21;100.00
28448;BME280;15675;52.870;-1.416;2022-12-15T08:22:58;100583.19;;;-2.74;100.00
28448;BME280;15675;52.870;-1.416;2022-12-15T08:25:25;100584.25;;;-2.54;99.03
28448;BME280;15675;52.870;-1.416;2022-12-15T08:27:53;100588.41;;;-2.39;96.41
28448;BME280;15675;52.870;-1.416;2022-12-15T08:30:19;100592.41;;;-2.28;94.46
28448;BME280;15675;52.870;-1.416;2022-12-15T08:32:45;100594.72;;;-2.49;92.29
28448;BME280;15675;52.870;-1.416;2022-12-15T08:35:12;100598.47;;;-2.89;90.48
28448;BME280;15675;52.870;-1.416;2022-12-15T08:37:38;100592.13;;;-3.55;90.73
28448;BME280;15675;52.870;-1.416;2022-12-15T08:40:05;100599.66;;;-4.00;91.95
28448;BME280;15675;52.870;-1.416;2022-12-15T08:42:37;100603.97;;;-4.12;93.81
28448;BME280;15675;52.870;-1.416;2022-12-15T08:45:04;100607.84;;;-4.32;95.34
28448;BME280;15675;52.870;-1.416;2022-12-15T08:47:30;100609.69;;;-4.43;97.64
28448;BME280;15675;52.870;-1.416;2022-12-15T08:49:55;100616.06;;;-4.08;98.84
28448;BME280;15675;52.870;-1.416;2022-12-15T08:52:22;100622.50;;;-4.13;99.53
28448;BME280;15675;52.870;-1.416;2022-12-15T08:54:48;100614.91;;;-4.13;100.00
28448;BME280;15675;52.870;-1.416;2022-12-15T08:57:13;100616.22;;;-3.92;100.00
28448;BME280;15675;52.870;-1.416;2022-12-15T08:59:39;100611.34;;;-4.02;100.00
28448;BME280;15675;52.870;-1.416;2022-12-15T09:02:04;100620.13;;;-3.97;100.00
28448;BME280;15675;52.870;-1.416;2022-12-15T09:04:30;100627.59;;;-3.85;100.00
28448;BME280;15675;52.870;-1.416;2022-12-15T09:06:56;100629.03;;;-4.04;100.00
28448;BME280;15675;52.870;-1.416;2022-12-15T09:09:21;100632.09;;;-4.23;100.00
28448;BME280;15675;52.870;-1.416;2022-12-15T09:11:48;100634.25;;;-3.87;100.00
28448;BME280;15675;52.870;-1.416;2022-12-15T09:14:15;100635.00;;;-4.03;100.00
28448;BME280;15675;52.870;-1.416;2022-12-15T09:16:40;100627.25;;;-4.05;100.00
28448;BME280;15675;52.870;-1.416;2022-12-15T09:19:06;100639.66;;;-3.96;100.00
28448;BME280;15675;52.870;-1.416;2022-12-15T09:21:32;100631.91;;;-3.84;100.00
28448;BME280;15675;52.870;-1.416;2022-12-15T09:24:00;100637.72;;;-3.72;100.00
28448;BME280;15675;52.870;-1.416;2022-12-15T09:26:28;100643.88;;;-3.53;100.00
28448;BME280;15675;52.870;-1.416;2022-12-15T09:28:54;100642.00;;;-3.27;100.00
28448;BME280;15675;52.870;-1.416;2022-12-15T09:31:29;100651.25;;;-3.28;100.00
28448;BME280;15675;52.870;-1.416;2022-12-15T09:33:57;100647.78;;;-3.00;100.00
28448;BME280;15675;52.870;-1.416;2022-12-15T09:36:23;100647.44;;;-3.06;100.00
28448;BME280;15675;52.870;-1.416;2022-12-15T09:38:49;100655.75;;;-3.09;100.00
28448;BME280;15675;52.870;-1.416;2022-12-15T09:44:04;100663.91;;;-2.85;100.00
28448;BME280;15675;52.870;-1.416;2022-12-15T09:52:03;100659.28;;;-2.92;100.00
28448;BME280;15675;52.870;-1.416;2022-12-15T09:54:32;100662.31;;;-2.83;100.00
28448;BME280;15675;52.870;-1.416;2022-12-15T09:57:02;100670.03;;;-2.66;100.00
28448;BME280;15675;52.870;-1.416;2022-12-15T09:59:53;100671.06;;;-2.63;100.00
28448;BME280;15675;52.870;-1.416;2022-12-15T10:02:44;100667.56;;;-2.80;100.00
28448;BME280;15675;52.870;-1.416;2022-12-15T10:07:58;100675.44;;;-2.60;100.00
28448;BME280;15675;52.870;-1.416;2022-12-15T10:10:54;100663.44;;;-2.48;100.00
28448;BME280;15675;52.870;-1.416;2022-12-15T10:13:27;100671.59;;;-2.53;100.00
28448;BME280;15675;52.870;-1.416;2022-12-15T10:16:06;100673.56;;;-2.33;100.00
28448;BME280;15675;52.870;-1.416;2022-12-15T10:18:43;100677.69;;;-2.35;100.00
28448;BME280;15675;52.870;-1.416;2022-12-15T10:21:11;100681.09;;;-2.19;100.00
28448;BME280;15675;52.870;-1.416;2022-12-15T10:23:39;100680.78;;;-2.09;100.00
28448;BME280;15675;52.870;-1.416;2022-12-15T10:26:18;100685.34;;;-2.03;100.00
28448;BME280;15675;52.870;-1.416;2022-12-15T10:29:05;100683.63;;;-1.88;100.00
28448;BME280;15675;52.870;-1.416;2022-12-15T10:31:56;100688.41;;;-1.78;99.79
28448;BME280;15675;52.870;-1.416;2022-12-15T10:34:27;100687.09;;;-1.86;99.35
28448;BME280;15675;52.870;-1.416;2022-12-15T10:36:55;100694.88;;;-1.99;99.93
28448;BME280;15675;52.870;-1.416;2022-12-15T10:39:22;100696.81;;;-1.79;99.91
28448;BME280;15675;52.870;-1.416;2022-12-15T10:44:46;100688.78;;;-1.86;100.00
28448;BME280;15675;52.870;-1.416;2022-12-15T10:47:22;100688.53;;;-1.75;99.88
28448;BME280;15675;52.870;-1.416;2022-12-15T10:49:48;100688.63;;;-1.73;99.87
28448;BME280;15675;52.870;-1.416;2022-12-15T10:54:45;100687.28;;;-1.66;100.00
28448;BME280;15675;52.870;-1.416;2022-12-15T10:57:19;100684.25;;;-1.76;100.00
28448;BME280;15675;52.870;-1.416;2022-12-15T10:59:44;100681.09;;;-1.55;100.00
28448;BME280;15675;52.870;-1.416;2022-12-15T11:10:26;100674.63;;;-1.32;100.00
28448;BME280;15675;52.870;-1.416;2022-12-15T11:13:13;100676.19;;;-1.17;99.90
28448;BME280;15675;52.870;-1.416;2022-12-15T11:15:42;100670.94;;;-1.04;100.00
28448;BME280;15675;52.870;-1.416;2022-12-15T11:21:35;100675.25;;;-1.19;99.71
28448;BME280;15675;52.870;-1.416;2022-12-15T11:31:51;100676.16;;;-0.66;99.78
28448;BME280;15675;52.870;-1.416;2022-12-15T11:34:20;100672.16;;;-0.43;99.11
28448;BME280;15675;52.870;-1.416;2022-12-15T11:37:13;100673.69;;;-0.47;98.83
28448;BME280;15675;52.870;-1.416;2022-12-15T12:02:23;100668.06;;;0.16;96.45
28448;BME280;15675;52.870;-1.416;2022-12-15T12:07:52;100668.69;;;0.49;95.51
28448;BME280;15675;52.870;-1.416;2022-12-15T12:13:15;100666.84;;;0.47;95.50
28448;BME280;15675;52.870;-1.416;2022-12-15T12:18:34;100664.56;;;0.33;96.52
28448;BME280;15675;52.870;-1.416;2022-12-15T12:21:06;100657.72;;;0.52;96.62
28448;BME280;15675;52.870;-1.416;2022-12-15T12:23:56;100658.19;;;0.63;96.13
28448;BME280;15675;52.870;-1.416;2022-12-15T12:29:24;100663.31;;;0.84;95.51
28448;BME280;15675;52.870;-1.416;2022-12-15T12:34:44;100656.25;;;1.19;94.41
28448;BME280;15675;52.870;-1.416;2022-12-15T12:37:22;100647.00;;;1.44;93.40
28448;BME280;15675;52.870;-1.416;2022-12-15T12:39:51;100648.06;;;1.28;92.94
28448;BME280;15675;52.870;-1.416;2022-12-15T12:42:33;100651.53;;;1.51;93.17
28448;BME280;15675;52.870;-1.416;2022-12-15T12:45:02;100646.50;;;1.75;92.53
28448;BME280;15675;52.870;-1.416;2022-12-15T12:47:34;100648.69;;;1.87;91.77
28448;BME280;15675;52.870;-1.416;2022-12-15T12:50:18;100643.13;;;1.76;91.27
28448;BME280;15675;52.870;-1.416;2022-12-15T12:52:51;100635.72;;;2.06;90.23
28448;BME280;15675;52.870;-1.416;2022-12-15T12:55:35;100637.28;;;2.26;89.72
28448;BME280;15675;52.870;-1.416;2022-12-15T12:58:02;100635.94;;;2.35;88.79
28448;BME280;15675;52.870;-1.416;2022-12-15T13:00:29;100633.88;;;2.27;87.38
28448;BME280;15675;52.870;-1.416;2022-12-15T13:03:08;100631.78;;;2.39;86.94
28448;BME280;15675;52.870;-1.416;2022-12-15T13:05:36;100633.09;;;2.28;86.78
28448;BME280;15675;52.870;-1.416;2022-12-15T13:10:32;100625.91;;;2.41;86.72
28448;BME280;15675;52.870;-1.416;2022-12-15T13:18:57;100640.47;;;2.42;86.15
28448;BME280;15675;52.870;-1.416;2022-12-15T13:24:34;100639.56;;;2.42;86.04
28448;BME280;15675;52.870;-1.416;2022-12-15T13:29:36;100632.97;;;2.73;86.19
28448;BME280;15675;52.870;-1.416;2022-12-15T13:33:00;100632.66;;;2.89;85.61
28448;BME280;15675;52.870;-1.416;2022-12-15T13:35:29;100634.72;;;3.00;86.04
28448;BME280;15675;52.870;-1.416;2022-12-15T13:37:57;100630.22;;;3.20;85.51
28448;BME280;15675;52.870;-1.416;2022-12-15T13:42:59;100637.44;;;3.32;85.15
28448;BME280;15675;52.870;-1.416;2022-12-15T13:45:40;100634.25;;;3.39;84.78
28448;BME280;15675;52.870;-1.416;2022-12-15T13:48:33;100629.84;;;3.62;84.04
28448;BME280;15675;52.870;-1.416;2022-12-15T13:51:17;100625.56;;;3.62;84.07
28448;BME280;15675;52.870;-1.416;2022-12-15T13:53:55;100634.19;;;3.65;82.36
28448;BME280;15675;52.870;-1.416;2022-12-15T13:56:34;100622.81;;;3.85;82.72
28448;BME280;15675;52.870;-1.416;2022-12-15T13:59:11;100621.69;;;4.06;81.53
28448;BME280;15675;52.870;-1.416;2022-12-15T14:01:47;100625.53;;;4.51;80.92
28448;BME280;15675;52.870;-1.416;2022-12-15T14:04:13;100625.34;;;4.76;79.57
28448;BME280;15675;52.870;-1.416;2022-12-15T14:09:30;100621.75;;;4.38;79.80
28448;BME280;15675;52.870;-1.416;2022-12-15T14:11:57;100637.63;;;3.94;80.69
28448;BME280;15675;52.870;-1.416;2022-12-15T14:14:32;100615.63;;;4.34;81.71
28448;BME280;15675;52.870;-1.416;2022-12-15T14:17:06;100623.31;;;4.32;80.39
28448;BME280;15675;52.870;-1.416;2022-12-15T14:19:36;100626.69;;;4.62;81.28
28448;BME280;15675;52.870;-1.416;2022-12-15T14:22:02;100617.97;;;4.57;79.20
28448;BME280;15675;52.870;-1.416;2022-12-15T14:24:30;100627.47;;;4.29;79.60
28448;BME280;15675;52.870;-1.416;2022-12-15T14:26:56;100629.41;;;4.36;79.46
28448;BME280;15675;52.870;-1.416;2022-12-15T14:29:23;100632.06;;;4.39;80.19
28448;BME280;15675;52.870;-1.416;2022-12-15T14:31:50;100636.28;;;4.37;79.71
28448;BME280;15675;52.870;-1.416;2022-12-15T14:34:23;100638.06;;;4.40;79.14
28448;BME280;15675;52.870;-1.416;2022-12-15T14:36:50;100640.28;;;4.58;79.58
28448;BME280;15675;52.870;-1.416;2022-12-15T14:41:47;100635.81;;;4.51;79.80
28448;BME280;15675;52.870;-1.416;2022-12-15T14:44:24;100643.41;;;4.47;79.03
28448;BME280;15675;52.870;-1.416;2022-12-15T14:46:52;100648.81;;;3.96;80.08
28448;BME280;15675;52.870;-1.416;2022-12-15T14:49:23;100641.31;;;4.02;81.17
28448;BME280;15675;52.870;-1.416;2022-12-15T14:51:52;100651.84;;;3.83;82.18
28448;BME280;15675;52.870;-1.416;2022-12-15T14:54:54;100647.50;;;4.10;82.61
28448;BME280;15675;52.870;-1.416;2022-12-15T14:57:36;100645.88;;;4.12;82.29
28448;BME280;15675;52.870;-1.416;2022-12-15T15:02:49;100651.22;;;3.90;83.08
28448;BME280;15675;52.870;-1.416;2022-12-15T15:05:24;100661.25;;;3.82;83.56
28448;BME280;15675;52.870;-1.416;2022-12-15T15:07:55;100662.53;;;3.96;83.69
28448;BME280;15675;52.870;-1.416;2022-12-15T15:10:24;100655.88;;;4.03;83.26